createdAt,value
2022-12-25T00:00:00.969Z,1007.93
2022-12-25T00:01:01.080Z,1007.93
2022-12-25T00:02:00.935Z,1007.93
2022-12-25T00:03:01.143Z,1007.95
2022-12-25T00:04:01.027Z,1007.92
2022-12-25T00:05:00.946Z,1007.91
2022-12-25T00:06:00.919Z,1007.92
2022-12-25T00:07:00.904Z,1007.96
2022-12-25T00:08:00.857Z,1007.94
2022-12-25T00:09:00.842Z,1007.94
2022-12-25T00:10:00.847Z,1007.90
2022-12-25T00:11:00.851Z,1007.92
2022-12-25T00:12:00.819Z,1007.89
2022-12-25T00:13:00.818Z,1007.89
2022-12-25T00:14:00.799Z,1007.91
2022-12-25T00:15:00.782Z,1007.95
2022-12-25T00:16:00.886Z,1007.95
2022-12-25T00:17:00.799Z,1008.03
2022-12-25T00:18:00.787Z,1008.05
2022-12-25T00:19:00.779Z,1008.06
2022-12-25T00:20:00.763Z,1008.01
2022-12-25T00:21:00.771Z,1007.96
2022-12-25T00:22:00.699Z,1007.98
2022-12-25T00:23:00.697Z,1008.01
2022-12-25T00:24:00.711Z,1007.98
2022-12-25T00:25:00.697Z,1007.96
2022-12-25T00:26:00.705Z,1007.97
2022-12-25T00:27:00.651Z,1008.01
2022-12-25T00:28:00.674Z,1007.98
2022-12-25T00:29:00.646Z,1007.98
2022-12-25T00:30:00.620Z,1007.97
2022-12-25T00:31:00.651Z,1007.95
2022-12-25T00:32:00.750Z,1007.98
2022-12-25T00:33:00.579Z,1007.94
2022-12-25T00:34:00.577Z,1007.89
2022-12-25T00:35:00.588Z,1007.92
2022-12-25T00:36:00.571Z,1007.96
2022-12-25T00:37:00.584Z,1007.95
2022-12-25T00:38:00.565Z,1007.97
2022-12-25T00:39:00.539Z,1008.00
2022-12-25T00:40:00.530Z,1007.99
2022-12-25T00:41:00.496Z,1008.03
2022-12-25T00:42:00.510Z,1007.98
2022-12-25T00:43:00.474Z,1007.94
2022-12-25T00:44:00.513Z,1007.95
2022-12-25T00:45:00.453Z,1007.95
2022-12-25T00:46:00.656Z,1007.97
2022-12-25T00:47:00.478Z,1007.96
2022-12-25T00:48:00.431Z,1008.01
2022-12-25T00:49:00.425Z,1007.93
2022-12-25T00:50:00.406Z,1008.08
2022-12-25T00:51:00.398Z,1007.95
2022-12-25T00:52:00.413Z,1007.99
2022-12-25T00:53:00.413Z,1008.03
2022-12-25T00:54:00.357Z,1007.97
2022-12-25T00:55:00.361Z,1007.99
2022-12-25T00:56:00.355Z,1007.91
2022-12-25T00:57:00.321Z,1007.90
2022-12-25T00:58:00.322Z,1007.94
2022-12-25T00:59:00.320Z,1007.99
2022-12-25T01:00:00.281Z,1007.91
2022-12-25T01:01:00.374Z,1007.96
2022-12-25T01:02:00.441Z,1007.95
2022-12-25T01:03:00.525Z,1007.93
2022-12-25T01:04:00.262Z,1007.99
2022-12-25T01:05:00.262Z,1007.99
2022-12-25T01:06:00.497Z,1007.96
2022-12-25T01:07:00.222Z,1007.94
2022-12-25T01:08:00.252Z,1007.89
2022-12-25T01:09:00.231Z,1007.88
2022-12-25T01:10:00.203Z,1007.88
2022-12-25T01:11:00.264Z,1007.89
2022-12-25T01:12:00.173Z,1007.86
2022-12-25T01:13:00.162Z,1007.90
2022-12-25T01:14:00.145Z,1007.91
2022-12-25T01:15:00.122Z,1007.88
2022-12-25T01:16:00.280Z,1007.90
2022-12-25T01:17:00.103Z,1007.88
2022-12-25T01:18:05.656Z,1007.86
2022-12-25T01:19:01.079Z,1007.92
2022-12-25T01:20:00.093Z,1007.98
2022-12-25T01:21:00.087Z,1007.95
2022-12-25T01:22:00.060Z,1007.96
2022-12-25T01:23:00.101Z,1008.01
2022-12-25T01:24:00.059Z,1007.99
2022-12-25T01:25:00.050Z,1007.95
2022-12-25T01:25:59.999Z,1007.89
2022-12-25T01:26:59.992Z,1007.82
2022-12-25T01:28:00.011Z,1007.81
2022-12-25T01:28:59.983Z,1007.75
2022-12-25T01:29:59.957Z,1007.80
2022-12-25T01:30:59.954Z,1007.86
2022-12-25T01:32:00.004Z,1007.78
2022-12-25T01:32:59.966Z,1007.80
2022-12-25T01:33:59.911Z,1007.77
2022-12-25T01:34:59.928Z,1007.75
2022-12-25T01:35:59.914Z,1007.73
2022-12-25T01:36:59.889Z,1007.77
2022-12-25T01:37:59.893Z,1007.82
2022-12-25T01:38:59.855Z,1007.81
2022-12-25T01:39:59.867Z,1007.83
2022-12-25T01:40:59.908Z,1007.85
2022-12-25T01:41:59.834Z,1007.89
2022-12-25T01:42:59.868Z,1007.90
2022-12-25T01:43:59.858Z,1007.91
2022-12-25T01:44:59.800Z,1007.88
2022-12-25T01:45:59.936Z,1007.88
2022-12-25T01:46:59.786Z,1007.88
2022-12-25T01:47:59.763Z,1007.84
2022-12-25T01:48:59.761Z,1007.92
2022-12-25T01:49:59.749Z,1007.86
2022-12-25T01:50:59.723Z,1007.93
2022-12-25T01:51:59.744Z,1007.93
2022-12-25T01:52:59.752Z,1007.96
2022-12-25T01:53:59.718Z,1007.94
2022-12-25T01:54:59.732Z,1007.94
2022-12-25T01:55:59.683Z,1007.94
2022-12-25T01:56:59.688Z,1007.90
2022-12-25T01:57:59.648Z,1007.87
2022-12-25T01:58:59.673Z,1007.88
2022-12-25T01:59:59.659Z,1007.82
2022-12-25T02:00:59.720Z,1007.79
2022-12-25T02:01:59.845Z,1007.87
2022-12-25T02:02:59.728Z,1007.86
2022-12-25T02:03:59.582Z,1007.87
2022-12-25T02:04:59.587Z,1007.84
2022-12-25T02:05:59.575Z,1007.86
2022-12-25T02:06:59.550Z,1007.84
2022-12-25T02:07:59.544Z,1007.85
2022-12-25T02:08:59.533Z,1007.83
2022-12-25T02:09:59.516Z,1007.81
2022-12-25T02:10:59.535Z,1007.79
2022-12-25T02:11:59.496Z,1007.76
2022-12-25T02:12:59.545Z,1007.75
2022-12-25T02:13:59.521Z,1007.84
2022-12-25T02:15:04.961Z,1007.85
2022-12-25T02:16:00.456Z,1007.84
2022-12-25T02:16:59.487Z,1007.88
2022-12-25T02:17:59.463Z,1007.90
2022-12-25T02:18:59.428Z,1007.96
2022-12-25T02:19:59.445Z,1008.03
2022-12-25T02:20:59.397Z,1007.99
2022-12-25T02:21:59.382Z,1008.00
2022-12-25T02:22:59.375Z,1008.03
2022-12-25T02:23:59.368Z,1008.06
2022-12-25T02:24:59.352Z,1008.06
2022-12-25T02:25:59.355Z,1008.07
2022-12-25T02:26:59.339Z,1008.09
2022-12-25T02:27:59.330Z,1008.08
2022-12-25T02:28:59.358Z,1008.05
2022-12-25T02:29:59.301Z,1008.03
2022-12-25T02:30:59.307Z,1008.03
2022-12-25T02:31:59.572Z,1008.04
2022-12-25T02:32:59.266Z,1008.07
2022-12-25T02:33:59.252Z,1008.06
2022-12-25T02:34:59.249Z,1008.09
2022-12-25T02:35:59.235Z,1008.13
2022-12-25T02:36:59.223Z,1008.10
2022-12-25T02:37:59.214Z,1008.06
2022-12-25T02:38:59.209Z,1008.08
2022-12-25T02:39:59.250Z,1008.04
2022-12-25T02:40:59.221Z,1008.03
2022-12-25T02:41:59.174Z,1008.00
2022-12-25T02:42:59.177Z,1008.01
2022-12-25T02:43:59.170Z,1008.03
2022-12-25T02:44:59.174Z,1008.03
2022-12-25T02:45:59.245Z,1007.97
2022-12-25T02:46:59.139Z,1008.01
2022-12-25T02:47:59.109Z,1008.02
2022-12-25T02:48:59.101Z,1008.04
2022-12-25T02:49:59.110Z,1008.06
2022-12-25T02:50:59.066Z,1008.06
2022-12-25T02:51:59.091Z,1008.10
2022-12-25T02:52:59.070Z,1008.00
2022-12-25T02:53:59.041Z,1008.07
2022-12-25T02:54:59.024Z,1008.05
2022-12-25T02:55:59.046Z,1008.00
2022-12-25T02:56:59.014Z,1008.01
2022-12-25T02:57:58.999Z,1008.00
2022-12-25T02:58:58.981Z,1007.91
2022-12-25T02:59:58.976Z,1007.92
2022-12-25T03:00:59.004Z,1007.88
2022-12-25T03:01:59.068Z,1007.92
2022-12-25T03:02:58.989Z,1007.97
2022-12-25T03:03:58.934Z,1007.96
2022-12-25T03:04:58.927Z,1007.97
2022-12-25T03:05:58.928Z,1007.94
2022-12-25T03:06:58.888Z,1007.92
2022-12-25T03:07:58.886Z,1007.98
2022-12-25T03:08:58.875Z,1008.02
2022-12-25T03:09:58.892Z,1008.08
2022-12-25T03:10:58.859Z,1008.09
2022-12-25T03:11:58.854Z,1008.09
2022-12-25T03:12:58.847Z,1008.09
2022-12-25T03:13:58.828Z,1008.07
2022-12-25T03:14:58.823Z,1008.02
2022-12-25T03:15:58.810Z,1008.03
2022-12-25T03:16:58.884Z,1007.97
2022-12-25T03:17:58.789Z,1007.96
2022-12-25T03:18:58.768Z,1007.99
2022-12-25T03:19:58.761Z,1007.93
2022-12-25T03:20:58.756Z,1007.94
2022-12-25T03:21:58.738Z,1007.87
2022-12-25T03:22:58.739Z,1007.91
2022-12-25T03:23:58.744Z,1007.86
2022-12-25T03:24:58.715Z,1007.89
2022-12-25T03:25:58.703Z,1007.83
2022-12-25T03:26:58.685Z,1007.81
2022-12-25T03:27:58.676Z,1007.82
2022-12-25T03:28:58.649Z,1007.76
2022-12-25T03:29:58.639Z,1007.74
2022-12-25T03:30:58.709Z,1007.78
2022-12-25T03:31:58.630Z,1007.85
2022-12-25T03:32:58.794Z,1007.84
2022-12-25T03:33:58.611Z,1007.80
2022-12-25T03:34:58.596Z,1007.81
2022-12-25T03:35:58.565Z,1007.77
2022-12-25T03:36:58.574Z,1007.66
2022-12-25T03:37:58.546Z,1007.63
2022-12-25T03:38:58.551Z,1007.60
2022-12-25T03:39:58.558Z,1007.61
2022-12-25T03:40:58.511Z,1007.58
2022-12-25T03:41:58.518Z,1007.62
2022-12-25T03:42:58.499Z,1007.64
2022-12-25T03:43:58.483Z,1007.70
2022-12-25T03:44:58.468Z,1007.71
2022-12-25T03:45:58.549Z,1007.69
2022-12-25T03:46:58.466Z,1007.70
2022-12-25T03:47:58.449Z,1007.66
2022-12-25T03:48:58.454Z,1007.60
2022-12-25T03:49:58.446Z,1007.55
2022-12-25T03:50:58.434Z,1007.58
2022-12-25T03:51:58.414Z,1007.54
2022-12-25T03:52:58.409Z,1007.53
2022-12-25T03:53:58.378Z,1007.53
2022-12-25T03:54:58.357Z,1007.55
2022-12-25T03:55:58.361Z,1007.48
2022-12-25T03:56:58.339Z,1007.45
2022-12-25T03:57:58.331Z,1007.47
2022-12-25T03:58:58.320Z,1007.40
2022-12-25T03:59:58.311Z,1007.45
2022-12-25T04:00:58.354Z,1007.46
2022-12-25T04:01:58.456Z,1007.44
2022-12-25T04:02:58.359Z,1007.44
2022-12-25T04:03:58.264Z,1007.44
2022-12-25T04:04:58.274Z,1007.44
2022-12-25T04:05:58.260Z,1007.46
2022-12-25T04:06:58.240Z,1007.49
2022-12-25T04:07:58.227Z,1007.42
2022-12-25T04:08:58.234Z,1007.38
2022-12-25T04:09:58.197Z,1007.36
2022-12-25T04:10:58.198Z,1007.40
2022-12-25T04:12:02.493Z,1007.40
2022-12-25T04:12:58.163Z,1007.44
2022-12-25T04:13:58.178Z,1007.47
2022-12-25T04:14:58.154Z,1007.46
2022-12-25T04:15:58.291Z,1007.44
2022-12-25T04:16:58.119Z,1007.42
2022-12-25T04:17:58.113Z,1007.34
2022-12-25T04:18:58.114Z,1007.35
2022-12-25T04:19:58.100Z,1007.35
2022-12-25T04:20:58.103Z,1007.34
2022-12-25T04:21:58.071Z,1007.41
2022-12-25T04:22:58.066Z,1007.45
2022-12-25T04:23:58.046Z,1007.40
2022-12-25T04:24:58.051Z,1007.40
2022-12-25T04:25:58.026Z,1007.40
2022-12-25T04:26:58.022Z,1007.41
2022-12-25T04:27:58.020Z,1007.45
2022-12-25T04:28:58.002Z,1007.43
2022-12-25T04:29:58.004Z,1007.42
2022-12-25T04:30:58.040Z,1007.44
2022-12-25T04:31:57.959Z,1007.45
2022-12-25T04:32:57.953Z,1007.43
2022-12-25T04:33:57.935Z,1007.47
2022-12-25T04:34:57.948Z,1007.49
2022-12-25T04:35:57.930Z,1007.46
2022-12-25T04:36:57.945Z,1007.46
2022-12-25T04:37:57.901Z,1007.49
2022-12-25T04:38:57.899Z,1007.50
2022-12-25T04:39:57.882Z,1007.51
2022-12-25T04:40:57.882Z,1007.56
2022-12-25T04:41:57.849Z,1007.60
2022-12-25T04:42:57.836Z,1007.60
2022-12-25T04:43:57.839Z,1007.60
2022-12-25T04:44:57.837Z,1007.59
2022-12-25T04:45:57.873Z,1007.58
2022-12-25T04:46:57.938Z,1007.54
2022-12-25T04:47:57.775Z,1007.55
2022-12-25T04:48:57.775Z,1007.58
2022-12-25T04:49:57.776Z,1007.56
2022-12-25T04:50:57.756Z,1007.64
2022-12-25T04:51:57.738Z,1007.61
2022-12-25T04:52:57.758Z,1007.57
2022-12-25T04:53:57.738Z,1007.59
2022-12-25T04:54:57.704Z,1007.60
2022-12-25T04:55:57.707Z,1007.55
2022-12-25T04:56:57.701Z,1007.58
2022-12-25T04:57:57.667Z,1007.53
2022-12-25T04:58:57.697Z,1007.52
2022-12-25T04:59:57.659Z,1007.50
2022-12-25T05:00:57.637Z,1007.48
2022-12-25T05:01:57.740Z,1007.49
2022-12-25T05:02:57.868Z,1007.48
2022-12-25T05:03:57.657Z,1007.51
2022-12-25T05:04:57.596Z,1007.51
2022-12-25T05:05:57.579Z,1007.50
2022-12-25T05:06:57.586Z,1007.47
2022-12-25T05:07:57.595Z,1007.52
2022-12-25T05:08:57.592Z,1007.50
2022-12-25T05:09:57.560Z,1007.46
2022-12-25T05:10:57.533Z,1007.50
2022-12-25T05:11:57.535Z,1007.40
2022-12-25T05:12:57.541Z,1007.35
2022-12-25T05:13:57.495Z,1007.34
2022-12-25T05:14:57.487Z,1007.27
2022-12-25T05:15:57.520Z,1007.26
2022-12-25T05:16:57.475Z,1007.22
2022-12-25T05:17:57.445Z,1007.22
2022-12-25T05:18:57.455Z,1007.21
2022-12-25T05:19:57.436Z,1007.24
2022-12-25T05:20:57.418Z,1007.24
2022-12-25T05:21:57.424Z,1007.22
2022-12-25T05:22:57.409Z,1007.25
2022-12-25T05:23:57.424Z,1007.26
2022-12-25T05:24:57.405Z,1007.22
2022-12-25T05:25:57.382Z,1007.24
2022-12-25T05:26:57.357Z,1007.24
2022-12-25T05:27:57.355Z,1007.24
2022-12-25T05:28:57.341Z,1007.29
2022-12-25T05:29:57.333Z,1007.25
2022-12-25T05:30:57.389Z,1007.29
2022-12-25T05:31:57.317Z,1007.30
2022-12-25T05:32:57.289Z,1007.29
2022-12-25T05:33:57.294Z,1007.26
2022-12-25T05:34:57.280Z,1007.25
2022-12-25T05:35:57.283Z,1007.22
2022-12-25T05:36:57.265Z,1007.19
2022-12-25T05:37:57.236Z,1007.18
2022-12-25T05:38:57.221Z,1007.16
2022-12-25T05:39:57.229Z,1007.09
2022-12-25T05:40:57.235Z,1007.07
2022-12-25T05:41:57.202Z,1007.05
2022-12-25T05:42:57.200Z,1007.03
2022-12-25T05:43:57.201Z,1007.00
2022-12-25T05:44:57.181Z,1007.04
2022-12-25T05:45:57.187Z,1007.04
2022-12-25T05:46:57.222Z,1006.96
2022-12-25T05:47:57.117Z,1006.89
2022-12-25T05:48:57.132Z,1006.86
2022-12-25T05:49:57.108Z,1006.87
2022-12-25T05:50:57.097Z,1006.85
2022-12-25T05:51:57.087Z,1006.85
2022-12-25T05:53:00.194Z,1006.78
2022-12-25T05:53:58.068Z,1006.77
2022-12-25T05:54:57.055Z,1006.75
2022-12-25T05:55:57.029Z,1006.77
2022-12-25T05:56:57.060Z,1006.79
2022-12-25T05:57:57.031Z,1006.83
2022-12-25T05:58:57.010Z,1006.85
2022-12-25T05:59:57.002Z,1006.90
2022-12-25T06:00:56.976Z,1006.88
2022-12-25T06:01:57.081Z,1006.93
2022-12-25T06:02:57.112Z,1006.89
2022-12-25T06:03:57.011Z,1006.85
2022-12-25T06:04:56.937Z,1006.85
2022-12-25T06:05:56.936Z,1006.84
2022-12-25T06:06:56.940Z,1006.81
2022-12-25T06:07:56.922Z,1006.86
2022-12-25T06:08:56.901Z,1006.83
2022-12-25T06:09:56.915Z,1006.81
2022-12-25T06:10:56.872Z,1006.78
2022-12-25T06:11:56.851Z,1006.76
2022-12-25T06:12:56.889Z,1006.74
2022-12-25T06:13:56.841Z,1006.69
2022-12-25T06:14:56.846Z,1006.73
2022-12-25T06:15:56.863Z,1006.72
2022-12-25T06:16:56.898Z,1006.77
2022-12-25T06:17:56.782Z,1006.75
2022-12-25T06:18:56.797Z,1006.72
2022-12-25T06:19:56.764Z,1006.75
2022-12-25T06:21:04.533Z,1006.75
2022-12-25T06:21:56.759Z,1006.76
2022-12-25T06:22:56.733Z,1006.79
2022-12-25T06:23:56.798Z,1006.75
2022-12-25T06:24:56.721Z,1006.67
2022-12-25T06:25:56.717Z,1006.65
2022-12-25T06:26:56.700Z,1006.65
2022-12-25T06:27:56.738Z,1006.61
2022-12-25T06:28:56.707Z,1006.57
2022-12-25T06:29:56.682Z,1006.62
2022-12-25T06:30:56.671Z,1006.59
2022-12-25T06:31:56.736Z,1006.59
2022-12-25T06:32:56.638Z,1006.55
2022-12-25T06:33:56.642Z,1006.53
2022-12-25T06:34:56.631Z,1006.48
2022-12-25T06:35:56.624Z,1006.49
2022-12-25T06:36:56.617Z,1006.49
2022-12-25T06:37:56.595Z,1006.46
2022-12-25T06:38:56.564Z,1006.44
2022-12-25T06:39:56.593Z,1006.45
2022-12-25T06:40:56.535Z,1006.44
2022-12-25T06:41:56.563Z,1006.41
2022-12-25T06:42:56.535Z,1006.38
2022-12-25T06:43:56.511Z,1006.38
2022-12-25T06:44:56.528Z,1006.32
2022-12-25T06:45:56.555Z,1006.31
2022-12-25T06:46:56.491Z,1006.30
2022-12-25T06:47:56.492Z,1006.27
2022-12-25T06:48:56.484Z,1006.22
2022-12-25T06:49:56.435Z,1006.19
2022-12-25T06:50:56.430Z,1006.20
2022-12-25T06:51:56.441Z,1006.19
2022-12-25T06:52:56.402Z,1006.28
2022-12-25T06:53:56.409Z,1006.31
2022-12-25T06:54:56.408Z,1006.30
2022-12-25T06:55:56.375Z,1006.30
2022-12-25T06:56:56.375Z,1006.29
2022-12-25T06:57:56.378Z,1006.24
2022-12-25T06:58:56.366Z,1006.28
2022-12-25T06:59:56.357Z,1006.19
2022-12-25T07:00:56.401Z,1006.21
2022-12-25T07:01:56.496Z,1006.22
2022-12-25T07:02:56.551Z,1006.20
2022-12-25T07:03:56.281Z,1006.14
2022-12-25T07:04:56.294Z,1006.09
2022-12-25T07:05:56.294Z,1006.07
2022-12-25T07:06:56.283Z,1006.00
2022-12-25T07:07:56.245Z,1006.01
2022-12-25T07:08:56.225Z,1006.02
2022-12-25T07:09:56.251Z,1006.03
2022-12-25T07:10:56.227Z,1006.08
2022-12-25T07:11:56.236Z,1006.06
2022-12-25T07:12:56.219Z,1006.04
2022-12-25T07:13:56.176Z,1006.08
2022-12-25T07:14:56.210Z,1006.06
2022-12-25T07:15:56.164Z,1006.04
2022-12-25T07:16:56.295Z,1005.96
2022-12-25T07:17:56.148Z,1005.92
2022-12-25T07:18:56.122Z,1005.86
2022-12-25T07:19:56.107Z,1005.85
2022-12-25T07:20:56.113Z,1005.81
2022-12-25T07:21:56.091Z,1005.69
2022-12-25T07:22:56.158Z,1005.68
2022-12-25T07:23:56.133Z,1005.69
2022-12-25T07:24:56.091Z,1005.63
2022-12-25T07:25:56.098Z,1005.64
2022-12-25T07:26:56.036Z,1005.67
2022-12-25T07:27:56.069Z,1005.69
2022-12-25T07:28:56.026Z,1005.71
2022-12-25T07:29:55.999Z,1005.83
2022-12-25T07:30:55.986Z,1005.79
2022-12-25T07:31:56.046Z,1005.78
2022-12-25T07:32:56.026Z,1005.71
2022-12-25T07:33:55.968Z,1005.64
2022-12-25T07:34:55.947Z,1005.67
2022-12-25T07:35:55.927Z,1005.69
2022-12-25T07:36:55.928Z,1005.70
2022-12-25T07:37:55.918Z,1005.75
2022-12-25T07:38:55.921Z,1005.76
2022-12-25T07:39:55.918Z,1005.67
2022-12-25T07:40:55.875Z,1005.63
2022-12-25T07:41:55.894Z,1005.52
2022-12-25T07:42:55.871Z,1005.54
2022-12-25T07:43:55.855Z,1005.60
2022-12-25T07:44:55.873Z,1005.66
2022-12-25T07:45:55.936Z,1005.65
2022-12-25T07:46:55.810Z,1005.72
2022-12-25T07:47:57.769Z,1005.74
2022-12-25T07:48:56.830Z,1005.76
2022-12-25T07:49:55.782Z,1005.82
2022-12-25T07:50:55.798Z,1005.85
2022-12-25T07:51:55.768Z,1005.92
2022-12-25T07:52:55.784Z,1005.90
2022-12-25T07:53:55.765Z,1005.93
2022-12-25T07:54:55.726Z,1005.94
2022-12-25T07:55:55.708Z,1005.99
2022-12-25T07:56:55.724Z,1005.93
2022-12-25T07:57:55.738Z,1005.97
2022-12-25T07:58:55.699Z,1006.05
2022-12-25T07:59:55.683Z,1005.97
2022-12-25T08:00:55.767Z,1006.00
2022-12-25T08:01:55.908Z,1005.94
2022-12-25T08:02:55.798Z,1005.84
2022-12-25T08:03:55.846Z,1005.75
2022-12-25T08:04:55.656Z,1005.72
2022-12-25T08:05:55.630Z,1005.78
2022-12-25T08:06:55.587Z,1005.75
2022-12-25T08:07:57.968Z,1005.80
2022-12-25T08:08:55.614Z,1005.84
2022-12-25T08:09:55.561Z,1005.85
2022-12-25T08:10:55.580Z,1005.85
2022-12-25T08:11:55.569Z,1005.84
2022-12-25T08:12:55.549Z,1005.86
2022-12-25T08:13:55.539Z,1005.79
2022-12-25T08:14:55.542Z,1005.74
2022-12-25T08:15:55.489Z,1005.72
2022-12-25T08:16:55.554Z,1005.67
2022-12-25T08:17:55.481Z,1005.57
2022-12-25T08:18:55.487Z,1005.57
2022-12-25T08:19:55.452Z,1005.52
2022-12-25T08:20:55.492Z,1005.51
2022-12-25T08:21:55.467Z,1005.55
2022-12-25T08:22:55.420Z,1005.53
2022-12-25T08:23:55.415Z,1005.60
2022-12-25T08:24:55.405Z,1005.65
2022-12-25T08:26:00.379Z,1005.67
2022-12-25T08:26:56.399Z,1005.73
2022-12-25T08:27:55.368Z,1005.77
2022-12-25T08:28:55.372Z,1005.82
2022-12-25T08:29:55.367Z,1005.88
2022-12-25T08:30:55.403Z,1005.86
2022-12-25T08:31:55.330Z,1005.81
2022-12-25T08:32:55.322Z,1005.84
2022-12-25T08:33:55.302Z,1005.82
2022-12-25T08:34:55.318Z,1005.89
2022-12-25T08:35:55.295Z,1005.85
2022-12-25T08:36:55.308Z,1005.78
2022-12-25T08:37:55.285Z,1005.75
2022-12-25T08:39:02.085Z,1005.62
2022-12-25T08:39:56.231Z,1005.54
2022-12-25T08:40:55.232Z,1005.48
2022-12-25T08:41:55.230Z,1005.43
2022-12-25T08:42:55.211Z,1005.40
2022-12-25T08:43:55.223Z,1005.38
2022-12-25T08:44:55.212Z,1005.40
2022-12-25T08:45:55.244Z,1005.38
2022-12-25T08:46:55.219Z,1005.38
2022-12-25T08:47:55.178Z,1005.45
2022-12-25T08:48:55.188Z,1005.45
2022-12-25T08:49:55.187Z,1005.50
2022-12-25T08:50:55.132Z,1005.53
2022-12-25T08:51:55.111Z,1005.59
2022-12-25T08:52:55.155Z,1005.59
2022-12-25T08:53:55.107Z,1005.57
2022-12-25T08:54:55.127Z,1005.53
2022-12-25T08:55:55.085Z,1005.57
2022-12-25T08:57:00.405Z,1005.57
2022-12-25T08:57:56.067Z,1005.61
2022-12-25T08:58:55.029Z,1005.64
2022-12-25T08:59:55.018Z,1005.60
2022-12-25T09:00:55.234Z,1005.64
2022-12-25T09:01:55.168Z,1005.55
2022-12-25T09:02:55.157Z,1005.62
2022-12-25T09:03:54.966Z,1005.65
2022-12-25T09:04:54.957Z,1005.62
2022-12-25T09:05:55.016Z,1005.55
2022-12-25T09:06:54.947Z,1005.51
2022-12-25T09:07:54.915Z,1005.49
2022-12-25T09:08:54.961Z,1005.44
2022-12-25T09:09:54.909Z,1005.44
2022-12-25T09:10:54.907Z,1005.44
2022-12-25T09:11:54.916Z,1005.43
2022-12-25T09:12:54.862Z,1005.40
2022-12-25T09:13:54.879Z,1005.39
2022-12-25T09:14:54.838Z,1005.37
2022-12-25T09:15:54.911Z,1005.37
2022-12-25T09:16:54.884Z,1005.29
2022-12-25T09:17:54.825Z,1005.24
2022-12-25T09:18:54.801Z,1005.20
2022-12-25T09:19:54.806Z,1005.18
2022-12-25T09:20:54.818Z,1005.17
2022-12-25T09:21:54.767Z,1005.13
2022-12-25T09:22:54.779Z,1005.18
2022-12-25T09:23:54.772Z,1005.18
2022-12-25T09:24:54.791Z,1005.20
2022-12-25T09:25:54.736Z,1005.18
2022-12-25T09:26:54.723Z,1005.16
2022-12-25T09:27:54.703Z,1005.17
2022-12-25T09:28:54.771Z,1005.20
2022-12-25T09:29:54.688Z,1005.12
2022-12-25T09:30:54.726Z,1005.13
2022-12-25T09:31:54.658Z,1005.17
2022-12-25T09:32:54.657Z,1005.14
2022-12-25T09:33:54.679Z,1005.12
2022-12-25T09:34:54.659Z,1005.10
2022-12-25T09:35:54.670Z,1005.16
2022-12-25T09:36:54.595Z,1005.17
2022-12-25T09:37:54.606Z,1005.23
2022-12-25T09:38:54.610Z,1005.19
2022-12-25T09:39:54.577Z,1005.18
2022-12-25T09:40:54.593Z,1005.18
2022-12-25T09:41:54.594Z,1005.16
2022-12-25T09:42:54.564Z,1005.20
2022-12-25T09:43:54.552Z,1005.22
2022-12-25T09:44:54.516Z,1005.20
2022-12-25T09:45:54.567Z,1005.22
2022-12-25T09:46:54.603Z,1005.21
2022-12-25T09:47:54.485Z,1005.23
2022-12-25T09:48:54.481Z,1005.18
2022-12-25T09:49:54.464Z,1005.18
2022-12-25T09:50:54.511Z,1005.20
2022-12-25T09:51:54.453Z,1005.18
2022-12-25T09:52:54.448Z,1005.17
2022-12-25T09:53:54.438Z,1005.16
2022-12-25T09:54:54.420Z,1005.19
2022-12-25T09:55:54.413Z,1005.17
2022-12-25T09:56:54.428Z,1005.14
2022-12-25T09:57:54.386Z,1005.20
2022-12-25T09:58:54.372Z,1005.17
2022-12-25T09:59:54.398Z,1005.19
2022-12-25T10:00:54.364Z,1005.21
2022-12-25T10:01:54.487Z,1005.21
2022-12-25T10:02:54.570Z,1005.32
2022-12-25T10:03:54.426Z,1005.26
2022-12-25T10:04:54.305Z,1005.31
2022-12-25T10:05:54.309Z,1005.34
2022-12-25T10:06:54.291Z,1005.33
2022-12-25T10:07:54.271Z,1005.40
2022-12-25T10:08:54.244Z,1005.41
2022-12-25T10:09:54.240Z,1005.45
2022-12-25T10:10:54.268Z,1005.36
2022-12-25T10:11:54.239Z,1005.39
2022-12-25T10:12:54.236Z,1005.42
2022-12-25T10:13:54.204Z,1005.48
2022-12-25T10:14:54.186Z,1005.49
2022-12-25T10:15:54.215Z,1005.52
2022-12-25T10:16:54.152Z,1005.53
2022-12-25T10:17:54.165Z,1005.51
2022-12-25T10:18:54.150Z,1005.47
2022-12-25T10:19:54.140Z,1005.46
2022-12-25T10:20:54.115Z,1005.47
2022-12-25T10:21:54.110Z,1005.46
2022-12-25T10:22:54.106Z,1005.34
2022-12-25T10:23:54.081Z,1005.31
2022-12-25T10:24:54.103Z,1005.31
2022-12-25T10:25:54.096Z,1005.33
2022-12-25T10:26:54.052Z,1005.31
2022-12-25T10:27:54.073Z,1005.35
2022-12-25T10:28:54.074Z,1005.37
2022-12-25T10:29:54.022Z,1005.36
2022-12-25T10:30:54.034Z,1005.26
2022-12-25T10:31:53.996Z,1005.26
2022-12-25T10:32:54.003Z,1005.28
2022-12-25T10:33:53.981Z,1005.32
2022-12-25T10:34:54.045Z,1005.27
2022-12-25T10:35:53.952Z,1005.30
2022-12-25T10:36:53.955Z,1005.28
2022-12-25T10:37:53.929Z,1005.25
2022-12-25T10:38:53.929Z,1005.25
2022-12-25T10:39:53.901Z,1005.23
2022-12-25T10:40:53.907Z,1005.22
2022-12-25T10:41:53.907Z,1005.17
2022-12-25T10:42:53.887Z,1005.17
2022-12-25T10:43:53.912Z,1005.13
2022-12-25T10:44:53.881Z,1005.09
2022-12-25T10:45:53.903Z,1005.04
2022-12-25T10:46:53.867Z,1005.00
2022-12-25T10:48:00.739Z,1005.04
2022-12-25T10:48:54.862Z,1005.02
2022-12-25T10:49:53.805Z,1005.03
2022-12-25T10:50:53.832Z,1004.99
2022-12-25T10:51:53.810Z,1004.96
2022-12-25T10:52:53.767Z,1004.95
2022-12-25T10:53:53.765Z,1004.93
2022-12-25T10:54:53.772Z,1004.87
2022-12-25T10:55:53.737Z,1004.94
2022-12-25T10:56:53.720Z,1004.90
2022-12-25T10:57:53.701Z,1004.90
2022-12-25T10:58:53.723Z,1005.00
2022-12-25T10:59:53.713Z,1004.95
2022-12-25T11:00:53.701Z,1004.91
2022-12-25T11:01:55.613Z,1004.90
2022-12-25T11:02:54.122Z,1004.89
2022-12-25T11:03:53.753Z,1004.90
2022-12-25T11:04:53.643Z,1004.87
2022-12-25T11:05:53.621Z,1004.83
2022-12-25T11:06:53.616Z,1004.74
2022-12-25T11:07:53.625Z,1004.71
2022-12-25T11:08:53.607Z,1004.66
2022-12-25T11:09:55.418Z,1004.65
2022-12-25T11:10:53.601Z,1004.58
2022-12-25T11:11:53.579Z,1004.43
2022-12-25T11:12:53.613Z,1004.42
2022-12-25T11:13:53.557Z,1004.28
2022-12-25T11:14:53.514Z,1004.28
2022-12-25T11:15:53.589Z,1004.25
2022-12-25T11:16:53.524Z,1004.13
2022-12-25T11:17:53.498Z,1004.05
2022-12-25T11:18:53.478Z,1004.02
2022-12-25T11:19:53.481Z,1004.06
2022-12-25T11:20:53.483Z,1004.14
2022-12-25T11:21:53.462Z,1004.13
2022-12-25T11:22:53.459Z,1004.13
2022-12-25T11:23:53.430Z,1004.10
2022-12-25T11:24:53.431Z,1004.12
2022-12-25T11:25:53.419Z,1004.07
2022-12-25T11:26:53.388Z,1004.06
2022-12-25T11:27:53.673Z,1003.96
2022-12-25T11:28:53.398Z,1003.81
2022-12-25T11:29:53.355Z,1003.85
2022-12-25T11:30:53.419Z,1003.88
2022-12-25T11:31:53.439Z,1003.92
2022-12-25T11:32:53.470Z,1003.97
2022-12-25T11:33:53.343Z,1003.95
2022-12-25T11:34:53.310Z,1003.91
2022-12-25T11:35:53.320Z,1003.90
2022-12-25T11:36:53.306Z,1003.87
2022-12-25T11:37:53.271Z,1003.87
2022-12-25T11:38:53.246Z,1003.73
2022-12-25T11:39:53.247Z,1003.65
2022-12-25T11:40:53.229Z,1003.59
2022-12-25T11:41:53.230Z,1003.55
2022-12-25T11:42:53.284Z,1003.56
2022-12-25T11:43:53.203Z,1003.51
2022-12-25T11:44:53.200Z,1003.49
2022-12-25T11:45:53.183Z,1003.50
2022-12-25T11:46:53.232Z,1003.40
2022-12-25T11:47:53.165Z,1003.39
2022-12-25T11:48:53.158Z,1003.40
2022-12-25T11:49:58.618Z,1003.39
2022-12-25T11:50:54.124Z,1003.39
2022-12-25T11:51:53.111Z,1003.39
2022-12-25T11:52:53.295Z,1003.46
2022-12-25T11:53:53.099Z,1003.48
2022-12-25T11:54:53.102Z,1003.50
2022-12-25T11:55:53.096Z,1003.45
2022-12-25T11:56:53.057Z,1003.36
2022-12-25T11:57:53.032Z,1003.31
2022-12-25T11:58:53.096Z,1003.29
2022-12-25T11:59:53.010Z,1003.23
2022-12-25T12:00:53.013Z,1003.18
2022-12-25T12:01:53.201Z,1003.15
2022-12-25T12:02:53.214Z,1003.12
2022-12-25T12:03:53.041Z,1003.15
2022-12-25T12:04:52.987Z,1003.08